createdAt,value
2019-06-15T00:02:04.105Z,18.60
2019-06-15T00:04:32.924Z,18.50
2019-06-15T00:07:01.770Z,18.60
2019-06-15T00:09:31.298Z,18.60
2019-06-15T00:12:00.193Z,18.70
2019-06-15T00:14:29.070Z,18.70
2019-06-15T00:16:58.019Z,18.70
2019-06-15T00:19:27.005Z,18.80
2019-06-15T00:21:55.883Z,18.80
2019-06-15T00:24:35.012Z,18.80
2019-06-15T00:26:55.290Z,18.80
2019-06-15T00:29:24.194Z,18.70
2019-06-15T00:31:53.067Z,18.70
2019-06-15T00:34:21.907Z,18.60
2019-06-15T00:36:50.783Z,18.60
2019-06-15T00:39:19.675Z,18.60
2019-06-15T00:41:48.583Z,18.50
2019-06-15T00:44:17.563Z,18.60
2019-06-15T00:46:46.468Z,18.60
2019-06-15T00:49:15.418Z,18.60
2019-06-15T00:51:44.338Z,18.60
2019-06-15T00:54:13.244Z,18.70
2019-06-15T00:56:42.226Z,18.70
2019-06-15T00:59:11.181Z,18.70
2019-06-15T01:01:40.038Z,18.70
2019-06-15T01:04:08.845Z,18.80
2019-06-15T01:06:37.777Z,18.80
2019-06-15T01:09:07.139Z,18.80
2019-06-15T01:11:35.999Z,18.80
2019-06-15T01:14:05.035Z,18.80
2019-06-15T01:16:34.025Z,18.80
2019-06-15T01:19:02.940Z,18.80
2019-06-15T01:21:31.905Z,18.90
2019-06-15T01:24:00.887Z,18.90
2019-06-15T01:26:29.921Z,18.90
2019-06-15T01:28:58.751Z,18.90
2019-06-15T01:31:27.579Z,18.90
2019-06-15T01:33:56.496Z,18.90
2019-06-15T01:36:25.540Z,18.80
2019-06-15T01:38:54.510Z,18.80
2019-06-15T01:41:23.439Z,18.80
2019-06-15T01:43:52.466Z,18.80
2019-06-15T01:46:21.426Z,18.80
2019-06-15T01:48:50.221Z,18.80
2019-06-15T01:51:19.027Z,18.80
2019-06-15T01:53:47.841Z,18.80
2019-06-15T01:56:16.914Z,18.80
2019-06-15T01:58:45.813Z,18.80
2019-06-15T02:01:14.728Z,18.70
2019-06-15T02:03:43.708Z,18.80
2019-06-15T02:06:12.779Z,18.80
2019-06-15T02:08:41.718Z,18.80
2019-06-15T02:11:10.712Z,18.80
2019-06-15T02:13:39.656Z,18.80
2019-06-15T02:16:08.575Z,18.90
2019-06-15T02:18:37.422Z,18.80
2019-06-15T02:21:06.442Z,18.80
2019-06-15T02:23:35.350Z,18.80
2019-06-15T02:26:04.358Z,18.70
2019-06-15T02:28:33.199Z,18.70
2019-06-15T02:31:02.064Z,18.70
2019-06-15T02:33:30.926Z,18.70
2019-06-15T02:35:59.711Z,18.70
2019-06-15T02:38:28.599Z,18.70
2019-06-15T02:40:57.611Z,18.80
2019-06-15T02:43:26.687Z,18.80
2019-06-15T02:45:55.618Z,18.90
2019-06-15T02:48:24.576Z,18.90
2019-06-15T02:50:53.638Z,19.00
2019-06-15T02:53:22.586Z,19.00
2019-06-15T02:55:51.492Z,19.10
2019-06-15T02:58:20.286Z,19.10
2019-06-15T03:00:55.959Z,19.10
2019-06-15T03:03:24.800Z,19.20
2019-06-15T03:05:54.242Z,19.20
2019-06-15T03:08:23.456Z,19.30
2019-06-15T03:10:52.723Z,19.30
2019-06-15T03:13:21.604Z,19.30
2019-06-15T03:15:50.669Z,19.30
2019-06-15T03:18:19.646Z,19.30
2019-06-15T03:20:48.525Z,19.30
2019-06-15T03:23:17.459Z,19.40
2019-06-15T03:25:46.481Z,19.40
2019-06-15T03:28:15.555Z,19.40
2019-06-15T03:30:44.537Z,19.40
2019-06-15T03:33:13.496Z,19.40
2019-06-15T03:35:42.507Z,19.40
2019-06-15T03:38:11.471Z,19.40
2019-06-15T03:40:41.059Z,19.40
2019-06-15T03:43:10.022Z,19.40
2019-06-15T03:45:39.326Z,19.30
2019-06-15T03:48:08.420Z,19.30
2019-06-15T03:50:37.380Z,19.20
2019-06-15T03:53:06.400Z,19.10
2019-06-15T03:55:35.339Z,19.10
2019-06-15T03:58:04.357Z,19.10
2019-06-15T04:00:44.243Z,18.90
2019-06-15T04:03:13.356Z,18.80
2019-06-15T04:05:43.131Z,18.60
2019-06-15T04:08:12.249Z,18.50
2019-06-15T04:10:41.347Z,18.40
2019-06-15T04:13:10.322Z,18.30
2019-06-15T04:15:39.291Z,18.30
2019-06-15T04:18:08.140Z,18.20
2019-06-15T04:20:38.935Z,18.20
2019-06-15T04:23:07.837Z,18.20
2019-06-15T04:25:36.810Z,18.10
2019-06-15T04:28:05.839Z,18.00
2019-06-15T04:30:34.978Z,18.00
2019-06-15T04:33:03.910Z,17.90
2019-06-15T04:35:32.938Z,17.80
2019-06-15T04:38:01.842Z,17.80
2019-06-15T04:40:30.732Z,17.70
2019-06-15T04:42:59.546Z,17.60
2019-06-15T04:45:28.577Z,17.50
2019-06-15T04:47:57.558Z,17.40
2019-06-15T04:50:26.500Z,17.40
2019-06-15T04:52:55.454Z,17.40
2019-06-15T04:55:24.346Z,17.40
2019-06-15T04:57:53.314Z,17.40
2019-06-15T05:00:22.510Z,17.50
2019-06-15T05:02:51.440Z,17.40
2019-06-15T05:05:20.455Z,17.40
2019-06-15T05:07:49.394Z,17.40
2019-06-15T05:10:18.403Z,17.40
2019-06-15T05:12:47.311Z,17.40
2019-06-15T05:15:16.403Z,17.40
2019-06-15T05:17:46.333Z,17.30
2019-06-15T05:20:15.723Z,17.30
2019-06-15T05:22:44.758Z,17.30
2019-06-15T05:25:13.819Z,17.30
2019-06-15T05:27:42.874Z,17.20
2019-06-15T05:30:12.407Z,17.20
2019-06-15T05:32:41.343Z,17.20
2019-06-15T05:35:11.085Z,17.30
2019-06-15T05:37:39.944Z,17.30
2019-06-15T05:40:09.330Z,17.30
2019-06-15T05:42:38.273Z,17.30
2019-06-15T05:45:07.436Z,17.30
2019-06-15T05:47:36.454Z,17.40
2019-06-15T05:50:07.298Z,17.40
2019-06-15T05:52:36.334Z,17.40
2019-06-15T05:55:05.922Z,17.40
2019-06-15T05:57:34.981Z,17.40
2019-06-15T06:00:06.072Z,17.40
2019-06-15T06:02:35.044Z,17.40
2019-06-15T06:05:04.325Z,17.50
2019-06-15T06:10:21.630Z,17.50
2019-06-15T06:12:51.026Z,17.50
2019-06-15T06:15:20.163Z,17.50
2019-06-15T06:17:49.469Z,17.50
2019-06-15T06:20:18.590Z,17.50
2019-06-15T06:22:47.635Z,17.40
2019-06-15T06:25:19.916Z,17.40
2019-06-15T06:27:49.351Z,17.50
2019-06-15T06:30:19.499Z,17.50
2019-06-15T06:32:48.523Z,17.50
2019-06-15T06:35:17.922Z,17.50
2019-06-15T06:37:47.139Z,17.60
2019-06-15T06:40:16.719Z,17.60
2019-06-15T06:42:45.771Z,17.70
2019-06-15T06:45:15.051Z,17.70
2019-06-15T06:47:44.158Z,17.70
2019-06-15T06:50:14.706Z,17.80
2019-06-15T06:52:43.788Z,17.80
2019-06-15T06:55:13.137Z,17.90
2019-06-15T06:57:52.305Z,18.00
2019-06-15T07:00:13.072Z,18.00
2019-06-15T07:02:42.022Z,18.00
2019-06-15T07:05:11.143Z,18.10
2019-06-15T07:07:40.655Z,18.10
2019-06-15T07:10:10.086Z,18.10
2019-06-15T07:12:39.165Z,18.10
2019-06-15T07:15:09.560Z,18.00
2019-06-15T07:17:38.571Z,18.00
2019-06-15T07:20:09.088Z,17.90
2019-06-15T07:22:38.007Z,17.90
2019-06-15T07:25:07.733Z,17.90
2019-06-15T07:27:36.855Z,17.90
2019-06-15T07:30:10.023Z,18.00
2019-06-15T07:32:37.472Z,18.00
2019-06-15T07:35:06.783Z,18.00
2019-06-15T07:37:36.544Z,18.10
2019-06-15T07:40:06.246Z,18.10
2019-06-15T07:42:38.422Z,18.20
2019-06-15T07:45:07.412Z,18.20
2019-06-15T07:47:36.823Z,18.20
2019-06-15T07:50:05.750Z,18.20
2019-06-15T07:52:34.842Z,18.30
2019-06-15T07:55:04.002Z,18.30
2019-06-15T07:57:33.034Z,18.40
2019-06-15T08:00:02.092Z,18.50
2019-06-15T08:02:31.366Z,18.60
2019-06-15T08:05:00.459Z,18.60
2019-06-15T08:07:29.502Z,18.60
2019-06-15T08:09:58.529Z,18.70
2019-06-15T08:12:27.377Z,18.80
2019-06-15T08:14:56.272Z,18.80
2019-06-15T08:17:25.266Z,18.80
2019-06-15T08:19:54.334Z,18.70
2019-06-15T08:22:23.274Z,18.80
2019-06-15T08:24:52.392Z,18.80
2019-06-15T08:27:21.568Z,18.70
2019-06-15T08:29:50.634Z,18.80
2019-06-15T08:32:19.903Z,18.80
2019-06-15T08:34:48.903Z,18.80
2019-06-15T08:37:18.066Z,18.80
2019-06-15T08:39:46.947Z,18.90
2019-06-15T08:42:15.870Z,18.90
2019-06-15T08:44:44.801Z,19.00
2019-06-15T08:47:13.614Z,19.00
2019-06-15T08:49:42.542Z,19.00
2019-06-15T08:52:11.838Z,19.10
2019-06-15T08:54:40.832Z,19.10
2019-06-15T08:57:10.292Z,19.10
2019-06-15T08:59:40.358Z,19.20
2019-06-15T09:02:09.433Z,19.30
2019-06-15T09:04:38.558Z,19.40
2019-06-15T09:07:07.456Z,19.40
2019-06-15T09:09:36.578Z,19.50
2019-06-15T09:12:05.519Z,19.50
2019-06-15T09:14:34.440Z,19.50
2019-06-15T09:17:03.736Z,19.60
2019-06-15T09:19:32.603Z,19.50
2019-06-15T09:22:01.490Z,19.70
2019-06-15T09:24:30.423Z,19.90
2019-06-15T09:26:59.365Z,20.00
2019-06-15T09:29:28.331Z,20.10
2019-06-15T09:31:57.141Z,20.20
2019-06-15T09:34:26.263Z,20.20
2019-06-15T09:36:55.173Z,20.20
2019-06-15T09:39:26.383Z,20.20
2019-06-15T09:41:55.375Z,20.20
2019-06-15T09:44:24.298Z,20.20
2019-06-15T09:46:54.012Z,20.30
2019-06-15T09:49:22.890Z,20.30
2019-06-15T09:51:51.782Z,20.30
2019-06-15T09:54:20.814Z,20.30
2019-06-15T09:56:49.867Z,20.30
2019-06-15T09:59:26.043Z,20.40
2019-06-15T10:01:49.794Z,20.50
2019-06-15T10:04:18.667Z,20.40
2019-06-15T10:06:47.708Z,20.40
2019-06-15T10:09:16.784Z,20.40
2019-06-15T10:11:45.794Z,20.40
2019-06-15T10:14:14.722Z,20.40
2019-06-15T10:16:44.456Z,20.40
2019-06-15T10:19:13.392Z,20.40
2019-06-15T10:21:42.508Z,20.50
2019-06-15T10:24:11.362Z,20.50
2019-06-15T10:26:40.163Z,20.50
2019-06-15T10:29:09.070Z,20.50
2019-06-15T10:31:37.909Z,20.50
2019-06-15T10:34:06.772Z,20.50
2019-06-15T10:36:35.822Z,20.50
2019-06-15T10:39:05.887Z,20.60
2019-06-15T10:41:35.475Z,20.80
2019-06-15T10:44:04.514Z,20.90
2019-06-15T10:46:34.087Z,20.90
2019-06-15T10:49:03.041Z,20.90
2019-06-15T10:51:31.967Z,20.90
2019-06-15T10:54:00.883Z,20.90
2019-06-15T10:56:29.875Z,21.00
2019-06-15T10:58:58.781Z,21.00
2019-06-15T11:01:27.622Z,21.00
2019-06-15T11:03:56.578Z,21.00
2019-06-15T11:06:25.405Z,21.00
2019-06-15T11:08:54.274Z,21.00
2019-06-15T11:11:23.471Z,20.90
2019-06-15T11:13:53.055Z,20.80
2019-06-15T11:16:22.182Z,20.80
2019-06-15T11:18:51.493Z,20.90
2019-06-15T11:21:20.286Z,20.90
2019-06-15T11:23:49.291Z,21.00
2019-06-15T11:26:18.396Z,21.10
2019-06-15T11:28:47.372Z,21.20
2019-06-15T11:31:16.284Z,21.20
2019-06-15T11:33:45.479Z,21.20
2019-06-15T11:36:15.096Z,21.30
2019-06-15T11:38:43.989Z,21.30
2019-06-15T11:41:13.537Z,21.40
2019-06-15T11:43:44.631Z,21.50
2019-06-15T11:46:13.805Z,21.60
2019-06-15T11:48:42.809Z,21.80
2019-06-15T11:51:11.900Z,21.90
2019-06-15T11:53:41.030Z,22.00
2019-06-15T11:56:10.153Z,22.10
2019-06-15T11:58:39.248Z,22.00
2019-06-15T12:01:08.249Z,22.00
2019-06-15T12:03:37.231Z,21.90
2019-06-15T12:06:09.759Z,21.80
2019-06-15T12:08:38.881Z,21.70
2019-06-15T12:11:07.708Z,21.70
2019-06-15T12:13:41.679Z,21.60
2019-06-15T12:16:10.642Z,21.60
2019-06-15T12:18:40.006Z,21.60
2019-06-15T12:21:08.894Z,21.50
2019-06-15T12:23:37.907Z,21.50
2019-06-15T12:26:06.917Z,21.50
2019-06-15T12:28:36.680Z,21.50
2019-06-15T12:31:05.665Z,21.50
2019-06-15T12:33:34.825Z,21.50
2019-06-15T12:36:18.313Z,21.70
2019-06-15T12:38:35.211Z,22.00
2019-06-15T12:41:04.097Z,22.30
2019-06-15T12:43:33.462Z,22.60
2019-06-15T12:46:02.483Z,22.70
2019-06-15T12:48:31.764Z,22.80
2019-06-15T12:51:01.084Z,23.00
2019-06-15T12:53:30.078Z,23.00
2019-06-15T12:55:59.311Z,23.10
2019-06-15T12:58:28.400Z,23.10
2019-06-15T13:01:02.727Z,23.00
2019-06-15T13:03:28.289Z,22.90
2019-06-15T13:05:57.330Z,22.80
2019-06-15T13:08:26.339Z,22.80
2019-06-15T13:10:55.381Z,22.80
2019-06-15T13:13:24.407Z,23.00
2019-06-15T13:15:53.421Z,23.20
2019-06-15T13:18:22.215Z,23.40
2019-06-15T13:20:51.198Z,23.50
2019-06-15T13:23:20.168Z,23.60
2019-06-15T13:25:49.148Z,23.80
2019-06-15T13:28:18.254Z,23.80
2019-06-15T13:30:47.364Z,23.70
2019-06-15T13:33:16.452Z,23.70
2019-06-15T13:35:45.484Z,23.50
2019-06-15T13:38:14.476Z,23.30
2019-06-15T13:40:43.343Z,23.20
2019-06-15T13:43:12.324Z,22.90
2019-06-15T13:45:41.414Z,22.80
2019-06-15T13:48:11.710Z,22.60
2019-06-15T13:50:41.290Z,22.50
2019-06-15T13:53:10.505Z,22.40
2019-06-15T13:55:39.401Z,22.40
2019-06-15T13:58:08.346Z,22.40
2019-06-15T14:00:37.238Z,22.30
2019-06-15T14:03:06.178Z,22.20
2019-06-15T14:05:35.155Z,22.00
2019-06-15T14:08:04.129Z,22.00
2019-06-15T14:10:33.184Z,22.00
2019-06-15T14:13:02.153Z,21.90
2019-06-15T14:15:31.034Z,22.00
2019-06-15T14:18:00.793Z,22.40
2019-06-15T14:20:29.802Z,22.80
2019-06-15T14:22:58.724Z,23.20
2019-06-15T14:25:27.675Z,23.50
2019-06-15T14:27:56.633Z,23.70
2019-06-15T14:30:25.933Z,23.90
2019-06-15T14:32:54.922Z,23.90
2019-06-15T14:35:23.864Z,23.90
2019-06-15T14:37:52.871Z,23.90
2019-06-15T14:40:22.064Z,23.80
2019-06-15T14:42:50.985Z,23.90
2019-06-15T14:45:23.374Z,23.90
2019-06-15T14:47:52.776Z,23.90
2019-06-15T14:50:21.723Z,23.80
2019-06-15T14:52:50.667Z,23.60
2019-06-15T14:55:19.770Z,23.50
2019-06-15T14:57:49.029Z,23.40
2019-06-15T15:00:18.308Z,23.30
2019-06-15T15:02:47.291Z,23.30
2019-06-15T15:05:17.858Z,23.20
2019-06-15T15:07:47.121Z,23.30
2019-06-15T15:10:16.414Z,23.30
2019-06-15T15:12:46.048Z,23.20
2019-06-15T15:15:17.134Z,23.20
2019-06-15T15:17:46.105Z,23.10
2019-06-15T15:20:17.337Z,23.10
2019-06-15T15:22:46.597Z,23.00
2019-06-15T15:25:16.884Z,23.00
2019-06-15T15:27:46.770Z,23.00
2019-06-15T15:30:27.111Z,23.10
2019-06-15T15:32:57.123Z,23.20
2019-06-15T15:35:26.904Z,23.20
2019-06-15T15:37:56.692Z,23.20
2019-06-15T15:40:27.373Z,23.20
2019-06-15T15:42:56.466Z,23.10
2019-06-15T15:45:26.225Z,23.00
2019-06-15T15:47:55.479Z,22.90
2019-06-15T15:50:26.302Z,23.00
2019-06-15T15:52:56.757Z,23.00
2019-06-15T15:55:26.472Z,22.90
2019-06-15T15:57:56.359Z,23.00
2019-06-15T16:00:32.240Z,23.10
2019-06-15T16:03:01.216Z,23.10
2019-06-15T16:05:30.682Z,23.10
2019-06-15T16:07:59.903Z,23.20
2019-06-15T16:10:28.955Z,23.20
2019-06-15T16:12:57.906Z,23.20
2019-06-15T16:15:26.810Z,23.20
2019-06-15T16:17:56.226Z,23.30
2019-06-15T16:20:28.639Z,23.30
2019-06-15T16:22:57.500Z,23.30
2019-06-15T16:25:26.758Z,23.30
2019-06-15T16:27:56.677Z,23.30
2019-06-15T16:30:48.380Z,23.30
2019-06-15T16:33:04.128Z,23.20
2019-06-15T16:35:35.935Z,23.10
2019-06-15T16:38:06.606Z,23.00
2019-06-15T16:40:38.231Z,23.00
2019-06-15T16:43:07.626Z,22.90
2019-06-15T16:45:36.825Z,22.90
2019-06-15T16:48:06.479Z,23.00
2019-06-15T16:50:36.577Z,23.10
2019-06-15T16:53:05.940Z,23.20
2019-06-15T16:55:36.874Z,23.20
2019-06-15T16:58:07.514Z,23.20
2019-06-15T17:00:36.596Z,23.10
2019-06-15T17:03:19.902Z,23.00
2019-06-15T17:05:36.650Z,23.00
2019-06-15T17:08:06.910Z,22.90
2019-06-15T17:10:38.677Z,22.80
2019-06-15T17:13:08.551Z,22.70
2019-06-15T17:15:37.918Z,22.60
2019-06-15T17:18:07.037Z,22.50
2019-06-15T17:20:43.571Z,22.20
2019-06-15T17:23:12.575Z,22.10
2019-06-15T17:25:41.498Z,22.00
2019-06-15T17:28:10.502Z,21.70
2019-06-15T17:30:39.428Z,21.60
2019-06-15T17:33:08.755Z,21.50
2019-06-15T17:35:38.025Z,21.30
2019-06-15T17:38:07.102Z,21.10
2019-06-15T17:40:36.554Z,21.00
2019-06-15T17:43:06.593Z,21.00
2019-06-15T17:45:37.540Z,21.10
2019-06-15T17:48:06.670Z,21.20
2019-06-15T17:50:38.178Z,21.10
2019-06-15T17:53:07.250Z,21.10
2019-06-15T17:55:36.979Z,21.00
2019-06-15T17:58:06.473Z,20.90
2019-06-15T18:00:47.166Z,20.80
2019-06-15T18:03:17.263Z,20.70
2019-06-15T18:05:48.015Z,20.70
2019-06-15T18:08:17.682Z,20.60
2019-06-15T18:10:47.808Z,20.50
2019-06-15T18:13:17.423Z,20.40
2019-06-15T18:15:47.671Z,20.30
2019-06-15T18:18:17.219Z,20.20
2019-06-15T18:20:46.686Z,20.00
2019-06-15T18:23:17.429Z,19.80
2019-06-15T18:25:47.042Z,19.60
2019-06-15T18:28:17.692Z,19.50
2019-06-15T18:30:47.624Z,19.50
2019-06-15T18:33:16.678Z,19.40
2019-06-15T18:35:47.440Z,19.40
2019-06-15T18:38:19.367Z,19.40
2019-06-15T18:40:48.409Z,19.40
2019-06-15T18:43:17.625Z,19.40
2019-06-15T18:45:47.405Z,19.30
2019-06-15T18:48:16.944Z,19.30
2019-06-15T18:50:46.402Z,19.30
2019-06-15T18:53:15.320Z,19.20
2019-06-15T18:55:46.984Z,19.20
2019-06-15T18:58:17.266Z,19.20
2019-06-15T19:00:45.889Z,19.10
2019-06-15T19:03:16.815Z,19.10
2019-06-15T19:05:45.475Z,18.80
2019-06-15T19:08:17.102Z,18.60
2019-06-15T19:10:46.676Z,18.30
2019-06-15T19:13:16.216Z,18.10
2019-06-15T19:15:46.442Z,17.90
2019-06-15T19:18:17.850Z,17.80
2019-06-15T19:20:46.366Z,17.60
2019-06-15T19:23:15.322Z,17.60
2019-06-15T19:25:46.772Z,17.50
2019-06-15T19:28:16.529Z,17.40
2019-06-15T19:30:47.208Z,17.40
2019-06-15T19:33:16.379Z,17.40
2019-06-15T19:35:46.417Z,17.30
2019-06-15T19:38:16.272Z,17.20
2019-06-15T19:40:46.091Z,17.10
2019-06-15T19:43:16.281Z,17.20
2019-06-15T19:45:45.417Z,17.20
2019-06-15T19:48:16.987Z,17.30
2019-06-15T19:50:46.258Z,17.30
2019-06-15T19:53:17.189Z,17.30
2019-06-15T19:55:46.623Z,17.20
2019-06-15T19:58:16.880Z,17.20
2019-06-15T20:00:48.213Z,17.20
2019-06-15T20:03:21.623Z,17.20
2019-06-15T20:05:51.341Z,17.00
2019-06-15T20:08:21.863Z,17.00
2019-06-15T20:10:51.782Z,16.90
2019-06-15T20:13:21.240Z,16.80
2019-06-15T20:15:50.267Z,16.70
2019-06-15T20:18:19.279Z,16.70
2019-06-15T20:20:48.174Z,16.70
2019-06-15T20:23:17.234Z,16.70
2019-06-15T20:25:47.016Z,16.70
2019-06-15T20:28:16.722Z,16.80
2019-06-15T20:30:46.244Z,16.90
2019-06-15T20:33:16.627Z,16.90
2019-06-15T20:35:47.079Z,16.90
2019-06-15T20:38:16.326Z,17.00
2019-06-15T20:40:47.345Z,16.90
2019-06-15T20:43:17.064Z,16.80
2019-06-15T20:45:47.023Z,16.80
2019-06-15T20:48:16.001Z,16.80
2019-06-15T20:50:47.130Z,16.80
2019-06-15T20:53:17.032Z,16.90
2019-06-15T20:55:46.607Z,16.80
2019-06-15T20:58:16.968Z,16.90
2019-06-15T21:00:47.655Z,16.90
2019-06-15T21:03:16.878Z,16.80
2019-06-15T21:05:47.671Z,16.70
2019-06-15T21:08:17.136Z,16.70
2019-06-15T21:10:47.317Z,16.70
2019-06-15T21:13:17.167Z,16.80
2019-06-15T21:15:47.379Z,16.70
2019-06-15T21:18:17.183Z,16.60
2019-06-15T21:20:47.175Z,16.60
2019-06-15T21:23:16.414Z,16.50
2019-06-15T21:25:48.174Z,16.50
2019-06-15T21:28:17.550Z,16.60
2019-06-15T21:30:47.232Z,16.60
2019-06-15T21:33:16.190Z,16.50
2019-06-15T21:35:52.242Z,16.50
2019-06-15T21:38:17.697Z,16.50
2019-06-15T21:40:47.550Z,16.60
2019-06-15T21:43:16.660Z,16.70
2019-06-15T21:45:46.309Z,16.60
2019-06-15T21:48:15.451Z,16.60
2019-06-15T21:51:03.563Z,16.60
2019-06-15T21:53:32.426Z,16.60
2019-06-15T21:56:02.595Z,16.70
2019-06-15T21:58:31.569Z,16.70
2019-06-15T22:01:28.334Z,16.70
2019-06-15T22:03:57.182Z,16.70
2019-06-15T22:06:27.945Z,16.70
2019-06-15T22:08:57.141Z,16.70
2019-06-15T22:11:26.634Z,16.70
2019-06-15T22:13:57.129Z,16.70
2019-06-15T22:16:27.559Z,16.70
2019-06-15T22:18:56.636Z,16.80
2019-06-15T22:21:27.992Z,16.80
2019-06-15T22:23:56.208Z,16.80
2019-06-15T22:26:26.754Z,16.70
2019-06-15T22:28:57.008Z,16.80
2019-06-15T22:31:26.257Z,16.70
2019-06-15T22:33:56.633Z,16.80
2019-06-15T22:36:28.446Z,16.80
2019-06-15T22:38:56.998Z,16.70
2019-06-15T22:41:28.866Z,16.70
2019-06-15T22:43:57.714Z,16.70
2019-06-15T22:46:26.637Z,16.60
2019-06-15T22:48:56.216Z,16.60
2019-06-15T22:51:27.433Z,16.60
2019-06-15T22:53:56.594Z,16.60
2019-06-15T22:56:26.374Z,16.70
2019-06-15T22:58:56.996Z,16.70
2019-06-15T23:01:26.293Z,16.70
2019-06-15T23:03:57.135Z,16.60
2019-06-15T23:06:37.460Z,16.60
2019-06-15T23:08:57.077Z,16.60
2019-06-15T23:11:26.687Z,16.50
2019-06-15T23:13:57.484Z,16.50
2019-06-15T23:16:27.526Z,16.50
2019-06-15T23:19:17.022Z,16.50
2019-06-15T23:21:46.382Z,16.50
2019-06-15T23:24:16.554Z,16.50
2019-06-15T23:27:06.785Z,16.50
2019-06-15T23:29:38.128Z,16.50
2019-06-15T23:32:07.719Z,16.60
2019-06-15T23:34:37.320Z,16.60
2019-06-15T23:37:26.622Z,16.60
2019-06-15T23:40:23.185Z,16.50
2019-06-15T23:43:11.450Z,16.40
2019-06-15T23:45:40.331Z,16.30
2019-06-15T23:48:09.382Z,16.10
2019-06-15T23:50:38.250Z,16.00
2019-06-15T23:53:07.166Z,15.90
2019-06-15T23:55:38.715Z,15.80
2019-06-15T23:58:07.586Z,15.70
